createdAt,value
2022-09-13T00:04:13.820Z,100451.70
2022-09-13T00:09:19.919Z,100459.60
2022-09-13T00:14:26.738Z,100459.33
2022-09-13T00:19:32.930Z,100459.99
2022-09-13T00:24:39.373Z,100459.31
2022-09-13T00:29:46.200Z,100460.39
2022-09-13T00:34:52.112Z,100456.30
2022-09-13T00:39:58.313Z,100458.96
2022-09-13T00:45:14.657Z,100462.98
2022-09-13T00:50:25.770Z,100463.70
2022-09-13T00:55:36.024Z,100459.86
2022-09-13T01:00:44.022Z,100456.29
2022-09-13T01:05:54.577Z,100451.73
2022-09-13T01:11:02.584Z,100453.94
2022-09-13T01:16:09.340Z,100454.05
2022-09-13T01:21:42.316Z,100458.95
2022-09-13T01:27:19.050Z,100457.73
2022-09-13T01:32:35.502Z,100452.66
2022-09-13T01:37:52.100Z,100455.98
2022-09-13T01:43:13.858Z,100450.50
2022-09-13T01:48:29.764Z,100446.27
2022-09-13T01:53:41.589Z,100446.39
2022-09-13T01:58:55.435Z,100439.63
2022-09-13T02:04:06.659Z,100442.55
2022-09-13T02:09:19.526Z,100443.96
2022-09-13T02:14:33.986Z,100439.56
2022-09-13T02:19:43.810Z,100436.52
2022-09-13T02:24:55.763Z,100434.51
2022-09-13T02:30:06.985Z,100427.61
2022-09-13T02:35:20.372Z,100421.34
2022-09-13T02:40:30.778Z,100416.59
2022-09-13T02:45:46.451Z,100415.80
2022-09-13T02:51:05.982Z,100413.27
2022-09-13T02:56:23.979Z,100412.31
2022-09-13T03:01:30.463Z,100406.78
2022-09-13T03:06:38.287Z,100408.30
2022-09-13T03:11:56.761Z,100399.29
2022-09-13T03:17:16.359Z,100392.70
2022-09-13T03:22:37.751Z,100387.89
2022-09-13T03:27:52.414Z,100393.38
2022-09-13T03:33:05.036Z,100390.30
2022-09-13T03:38:15.771Z,100386.65
2022-09-13T03:43:26.921Z,100379.75
2022-09-13T03:48:32.049Z,100367.81
2022-09-13T03:53:43.446Z,100368.79
2022-09-13T03:58:50.426Z,100366.40
2022-09-13T04:03:57.153Z,100363.84
2022-09-13T04:09:03.799Z,100365.42
2022-09-13T04:14:10.688Z,100368.17
2022-09-13T04:19:17.937Z,100360.91
2022-09-13T04:24:27.465Z,100358.09
2022-09-13T04:29:33.781Z,100360.43
2022-09-13T04:34:40.614Z,100366.20
2022-09-13T04:39:47.239Z,100363.14
2022-09-13T04:44:52.950Z,100366.40
2022-09-13T04:49:58.696Z,100365.65
2022-09-13T04:55:04.910Z,100366.67
2022-09-13T05:00:13.185Z,100365.98
2022-09-13T05:05:18.968Z,100358.80
2022-09-13T05:10:25.048Z,100358.95
2022-09-13T05:15:30.809Z,100363.36
2022-09-13T05:20:37.120Z,100365.34
2022-09-13T05:25:42.888Z,100362.31
2022-09-13T05:31:09.023Z,100366.11
2022-09-13T05:36:15.166Z,100368.23
2022-09-13T05:41:20.977Z,100369.60
2022-09-13T05:46:26.929Z,100363.23
2022-09-13T05:51:32.903Z,100359.68
2022-09-13T05:56:38.654Z,100352.47
2022-09-13T06:01:45.248Z,100346.41
2022-09-13T06:06:51.126Z,100336.66
2022-09-13T06:11:57.135Z,100328.71
2022-09-13T06:17:03.023Z,100329.80
2022-09-13T06:22:08.987Z,100333.37
2022-09-13T06:27:15.919Z,100332.37
2022-09-13T06:32:24.207Z,100326.56
2022-09-13T06:37:30.022Z,100328.97
2022-09-13T06:42:36.857Z,100333.35
2022-09-13T06:47:42.651Z,100333.45
2022-09-13T06:52:48.666Z,100336.23
2022-09-13T06:57:54.311Z,100333.01
2022-09-13T07:03:00.098Z,100325.13
2022-09-13T07:08:05.892Z,100321.51
2022-09-13T07:13:11.623Z,100321.27
2022-09-13T07:18:17.551Z,100318.74
2022-09-13T07:23:23.419Z,100314.39
2022-09-13T07:28:35.129Z,100307.34
2022-09-13T07:33:43.019Z,100306.19
2022-09-13T07:38:49.177Z,100304.13
2022-09-13T07:43:55.773Z,100300.70
2022-09-13T07:49:02.398Z,100301.37
2022-09-13T07:54:11.302Z,100298.56
2022-09-13T07:59:18.503Z,100305.02
2022-09-13T08:04:26.473Z,100303.91
2022-09-13T08:09:30.783Z,100301.05
2022-09-13T08:14:36.735Z,100301.02
2022-09-13T08:19:42.473Z,100294.98
2022-09-13T08:24:48.482Z,100283.98
2022-09-13T08:29:54.404Z,100279.47
2022-09-13T08:35:00.403Z,100276.88
2022-09-13T08:40:07.736Z,100271.02
2022-09-13T08:45:14.134Z,100268.31
2022-09-13T08:50:24.042Z,100270.31
2022-09-13T08:55:49.888Z,100268.92
2022-09-13T09:01:03.836Z,100269.98
2022-09-13T09:06:14.699Z,100264.69
2022-09-13T09:11:31.807Z,100263.29
2022-09-13T09:16:41.069Z,100258.59
2022-09-13T09:21:50.180Z,100251.08
2022-09-13T09:26:58.219Z,100247.36
2022-09-13T09:32:17.111Z,100244.94
2022-09-13T09:37:26.007Z,100240.77
2022-09-13T09:42:39.539Z,100233.44
2022-09-13T09:47:49.001Z,100227.59
2022-09-13T09:52:59.097Z,100227.30
2022-09-13T09:58:08.199Z,100223.48
2022-09-13T10:03:21.741Z,100211.73
2022-09-13T10:08:31.732Z,100207.91
2022-09-13T10:13:36.922Z,100199.11
2022-09-13T10:18:53.947Z,100186.55
2022-09-13T10:24:21.639Z,100181.55
2022-09-13T10:29:28.549Z,100184.81
2022-09-13T10:34:37.152Z,100183.20
2022-09-13T10:40:00.886Z,100174.84
2022-09-13T10:45:09.028Z,100166.20
2022-09-13T10:50:21.606Z,100167.48
2022-09-13T10:55:31.279Z,100165.59
2022-09-13T11:00:55.987Z,100161.73
2022-09-13T11:06:11.053Z,100151.08
2022-09-13T11:11:27.340Z,100150.90
2022-09-13T11:16:47.951Z,100148.69
2022-09-13T11:22:09.779Z,100146.62
2022-09-13T11:27:24.022Z,100137.51
2022-09-13T11:32:41.707Z,100134.58
2022-09-13T11:37:58.085Z,100129.00
2022-09-13T11:43:17.217Z,100125.08
2022-09-13T11:48:53.114Z,100117.66
2022-09-13T11:54:10.831Z,100112.81
2022-09-13T11:59:24.871Z,100102.29
2022-09-13T12:04:37.913Z,100085.89
2022-09-13T12:09:52.282Z,100073.88
2022-09-13T12:15:04.954Z,100065.92
2022-09-13T12:20:29.889Z,100056.94
2022-09-13T12:25:45.391Z,100047.20
2022-09-13T12:30:56.683Z,100038.79
2022-09-13T12:36:25.990Z,100025.23
2022-09-13T12:41:52.792Z,100017.10
2022-09-13T12:47:29.498Z,100012.08
2022-09-13T12:52:41.123Z,100019.20
2022-09-13T12:57:57.687Z,100019.80
2022-09-13T13:03:12.853Z,100009.80
2022-09-13T13:08:29.733Z,100003.79
2022-09-13T13:13:39.273Z,100006.98
2022-09-13T13:18:50.466Z,99996.08
2022-09-13T13:24:45.508Z,99986.71
2022-09-13T13:30:42.847Z,99977.75
2022-09-13T13:35:49.660Z,99973.34
2022-09-13T13:41:12.697Z,99965.46
2022-09-13T13:46:31.319Z,99959.41
2022-09-13T13:51:37.387Z,99966.59
2022-09-13T13:56:52.952Z,99963.46
2022-09-13T14:02:02.139Z,99960.54
2022-09-13T14:07:19.742Z,99957.80
2022-09-13T14:12:41.795Z,99953.98
2022-09-13T14:18:10.730Z,99954.13
2022-09-13T14:23:20.184Z,99946.61
2022-09-13T14:28:27.519Z,99935.81
2022-09-13T14:33:36.930Z,99927.04
2022-09-13T14:38:54.829Z,99914.69
2022-09-13T14:44:27.579Z,99907.48
2022-09-13T14:49:36.939Z,99900.02
2022-09-13T14:54:48.788Z,99891.41
2022-09-13T14:59:59.152Z,99886.06
2022-09-13T15:05:12.494Z,99877.23
2022-09-13T15:10:28.348Z,99876.42
2022-09-13T15:15:39.511Z,99875.19
2022-09-13T15:20:52.197Z,99872.99
2022-09-13T15:26:02.105Z,99868.94
2022-09-13T15:31:08.156Z,99863.06
2022-09-13T15:36:29.288Z,99861.26
2022-09-13T15:41:34.709Z,99852.81
2022-09-13T15:46:47.164Z,99852.95
2022-09-13T15:51:56.583Z,99853.58
2022-09-13T15:57:06.156Z,99853.98
2022-09-13T16:02:21.495Z,99847.23
2022-09-13T16:07:28.015Z,99841.05
2022-09-13T16:12:33.810Z,99832.89
2022-09-13T16:17:39.947Z,99827.27
2022-09-13T16:22:45.951Z,99821.95
2022-09-13T16:27:53.429Z,99815.42
2022-09-13T16:32:59.234Z,99809.36
2022-09-13T16:38:05.168Z,99809.42
2022-09-13T16:43:11.330Z,99804.07
2022-09-13T16:48:17.346Z,99802.41
2022-09-13T16:53:23.200Z,99802.59
2022-09-13T16:58:29.223Z,99802.09
2022-09-13T17:03:36.130Z,99799.73
2022-09-13T17:08:46.690Z,99798.17
2022-09-13T17:13:51.988Z,99796.09
2022-09-13T17:18:59.528Z,99791.53
2022-09-13T17:24:10.114Z,99793.05
2022-09-13T17:29:19.550Z,99791.67
2022-09-13T17:34:25.298Z,99788.33
2022-09-13T17:39:31.657Z,99784.99
2022-09-13T17:44:37.484Z,99781.65
2022-09-13T17:49:43.301Z,99782.42
2022-09-13T17:54:50.271Z,99781.33
2022-09-13T17:59:56.141Z,99784.52
2022-09-13T18:05:05.424Z,99779.29
2022-09-13T18:10:31.322Z,99782.06
2022-09-13T18:15:38.463Z,99786.35
2022-09-13T18:20:47.784Z,99788.21
2022-09-13T18:26:03.447Z,99780.17
2022-09-13T18:31:13.915Z,99770.20
2022-09-13T18:36:20.310Z,99756.73
2022-09-13T18:41:27.356Z,99750.79
2022-09-13T18:46:34.748Z,99748.33
2022-09-13T18:51:42.724Z,99744.31
2022-09-13T18:56:49.113Z,99734.72
2022-09-13T19:01:55.003Z,99729.46
2022-09-13T19:07:02.375Z,99724.96
2022-09-13T19:12:08.626Z,99717.18
2022-09-13T19:17:15.182Z,99716.89
2022-09-13T19:22:20.953Z,99711.81
2022-09-13T19:27:26.810Z,99701.64
2022-09-13T19:32:33.204Z,99701.39
2022-09-13T19:37:39.019Z,99697.24
2022-09-13T19:42:44.785Z,99693.67
2022-09-13T19:53:17.366Z,99688.06
2022-09-13T19:58:23.159Z,99686.91
2022-09-13T20:03:28.918Z,99682.28
2022-09-13T20:08:35.607Z,99673.02
2022-09-13T20:13:41.777Z,99671.30
2022-09-13T20:18:48.971Z,99664.20
2022-09-13T20:23:59.108Z,99655.23
2022-09-13T20:29:07.175Z,99651.05
2022-09-13T20:34:15.132Z,99644.16
2022-09-13T20:39:21.245Z,99637.76
2022-09-13T20:44:27.458Z,99634.77
2022-09-13T20:49:33.346Z,99628.91
2022-09-13T20:54:39.151Z,99624.56
2022-09-13T20:59:44.948Z,99626.30
2022-09-13T21:04:50.890Z,99624.83
2022-09-13T21:10:01.025Z,99621.84
2022-09-13T21:15:08.111Z,99618.96
2022-09-13T21:20:14.110Z,99614.35
2022-09-13T21:25:20.754Z,99607.52
2022-09-13T21:30:27.144Z,99608.02
2022-09-13T21:35:36.408Z,99604.63
2022-09-13T21:40:42.325Z,99602.54
2022-09-13T21:45:48.179Z,99604.51
2022-09-13T21:50:54.057Z,99611.41
2022-09-13T21:56:03.710Z,99604.08
2022-09-13T22:01:12.247Z,99599.00
2022-09-13T22:06:21.973Z,99598.64
2022-09-13T22:11:30.497Z,99593.05
2022-09-13T22:16:37.906Z,99588.64
2022-09-13T22:21:46.092Z,99580.73
2022-09-13T22:26:53.159Z,99573.67
2022-09-13T22:31:59.364Z,99566.85
2022-09-13T22:37:05.681Z,99565.23
2022-09-13T22:42:11.737Z,99561.84
2022-09-13T22:47:17.568Z,99554.35
2022-09-13T22:52:23.164Z,99551.56
2022-09-13T22:57:29.281Z,99556.45
2022-09-13T23:02:35.143Z,99549.92
2022-09-13T23:07:40.719Z,99550.13
2022-09-13T23:12:46.775Z,99549.00
2022-09-13T23:17:53.156Z,99548.58
2022-09-13T23:22:58.707Z,99545.48
2022-09-13T23:28:04.692Z,99542.34
2022-09-13T23:33:12.355Z,99542.02
2022-09-13T23:38:18.464Z,99540.84
2022-09-13T23:43:24.748Z,99540.89
2022-09-13T23:48:30.502Z,99539.27
2022-09-13T23:53:37.658Z,99538.74
2022-09-13T23:58:43.776Z,99533.89
